Weather at Hiroshima Heliport

Public forecast

Using degrees Celsius for public forecast. Weather courtesy of forecast.io.

Closest aviation weather report (METAR) to Hiroshima Heliport

Closest report is Iwakuni Kintaikyo Airport / Marine Corps Air Station Iwakuni, 15.9 nm (29.5 km) SSW.

2024/07/24 23:56 (retrieved 38 minutes ago)

RJOI 242356Z 11005KT 9999 FEW025TCU FEW140 BKN250 30/26 A2981 RMK AO2 TCU VC S W SLP095 T03000256 10300 20272 51009

Closest aviation forecast (TAF) to Hiroshima Heliport

Forecast is more than 12 hours old.

Closest forecast is Iwakuni Kintaikyo Airport / Marine Corps Air Station Iwakuni, 15.9 nm (29.5 km) SSW.

2024/07/24 09:32 Ammendment (retrieved 15 hours ago)

TAF AMD RJOI 2409/2509 08006KT 9999 FEW025 SCT160 BKN250 QNH2973INS FM241200 VRB06KT 9999 FEW025 BKN050 BKN150 BKN250 QNH2975INS FM241600 VRB04KT 9999 FEW015 BKN025 BKN050 BKN150 QNH2973INS FM242000 VRB05KT 9999 FEW020 BKN030 BKN050 BKN150 QNH2974INS FM250000 15008KT 9999 FEW025 SCT035 BKN150 QNH2976INS FM250400 17008KT 9999 FEW030 SCT150 QNH2973INS T28/2420Z T34/2506Z AMD 0920